»·PEaware :: N37BR KAWO-KCLM

N37BR :: KAWO-KCLM

FLIGHT INFORMATION

Flight Status: Arrived
Operator: Privately registered:
United States
More flights under this callsign
Pilot: Marc O. (15282)
Aircraft: CESSNA 172 SKYHAWK
(C172)
More flights by this aircraft type
Origin: KAWO Arlington Mun
United States
Destination: KCLM Fairchild Intl
United States
More flights between these airports :: More routes between these airports
Route: KAWO W10 BOANE FAMUV KCLM
File this flight plan on PilotEdge
Remarks:
Altitude:
(Current/Filed)
4,500ft
Speed:
(Current/Filed)
120kts
Departed: 30-Dec-17 12:25 PM
Arrived: 30-Dec-17 01:01 PM
Distance/Time
Traveled:
54nm/0:36
Distance/Time
To Go:
Arrived

Flight Plot

Page will automatically refresh every two minutes.

Flight plan parsing failed; only flown route is shown


Map Options




Map Legend


Flown Route
Filed Route
Departure Airport
Arrival Airport
Navaid (VOR, NDB)
Fix

Horizontal Profiles

Position Reports

Time Latitude Longitude Heading Altitude Ground
Speed
30-Dec-17 12:16 48.160717 -122.153154 88 142ft 0kts
30-Dec-17 12:17 48.160717 -122.153154 88 142ft 0kts
30-Dec-17 12:18 48.160716 -122.153154 88 142ft 0kts
30-Dec-17 12:19 48.160716 -122.153154 88 142ft 0kts
30-Dec-17 12:20 48.160716 -122.153154 88 142ft 0kts
30-Dec-17 12:21 48.160716 -122.153154 88 142ft 0kts
30-Dec-17 12:22 48.160717 -122.153154 88 142ft 0kts
30-Dec-17 12:23 48.160716 -122.153154 88 142ft 0kts
30-Dec-17 12:24 48.160716 -122.153154 88 142ft 0kts
30-Dec-17 12:25 48.160397 -122.153926 268 142ft 5kts
30-Dec-17 12:26 48.159532 -122.154234 178 142ft 11kts
30-Dec-17 12:27 48.155403 -122.154192 205 139ft 10kts
30-Dec-17 12:28 48.155199 -122.154839 311 140ft 0kts
30-Dec-17 12:29 48.155201 -122.154842 312 140ft 0kts
30-Dec-17 12:30 48.155351 -122.155041 283 140ft 0kts
30-Dec-17 12:31 48.162904 -122.156544 357 322ft 70kts
30-Dec-17 12:32 48.179113 -122.166694 266 1230ft 74kts
30-Dec-17 12:33 48.160751 -122.184628 208 2069ft 84kts
30-Dec-17 12:34 48.143357 -122.203970 220 3024ft 71kts
30-Dec-17 12:35 48.128980 -122.220205 182 3885ft 45kts
30-Dec-17 12:36 48.108702 -122.223126 226 4189ft 83kts
30-Dec-17 12:37 48.100941 -122.259284 247 4496ft 100kts
30-Dec-17 12:38 48.086996 -122.297561 237 4497ft 110kts
30-Dec-17 12:39 48.069462 -122.335530 234 4495ft 110kts
30-Dec-17 12:40 48.051066 -122.372430 233 4496ft 110kts
30-Dec-17 12:41 48.032156 -122.409450 233 4497ft 114kts
30-Dec-17 12:42 48.016891 -122.450500 259 4497ft 116kts
30-Dec-17 12:43 48.011002 -122.498305 260 4497ft 119kts
30-Dec-17 12:44 48.005251 -122.547890 260 4496ft 122kts
30-Dec-17 12:45 47.999535 -122.598007 260 4496ft 123kts
30-Dec-17 12:46 47.993787 -122.648468 260 4496ft 123kts
30-Dec-17 12:47 47.988059 -122.698630 260 4495ft 121kts
30-Dec-17 12:48 47.989345 -122.747271 283 4495ft 117kts
30-Dec-17 12:49 47.997092 -122.793628 284 4495ft 114kts
30-Dec-17 12:50 48.004998 -122.839634 284 4495ft 114kts
30-Dec-17 12:51 48.008460 -122.859577 284 4496ft 114kts
30-Dec-17 12:52 48.014355 -122.893514 284 4496ft 114kts
30-Dec-17 12:53 48.022284 -122.939232 284 4496ft 114kts
30-Dec-17 12:54 48.030215 -122.985082 284 4496ft 114kts
30-Dec-17 12:55 48.038076 -123.030643 284 4496ft 114kts
30-Dec-17 12:56 48.045967 -123.076495 284 4496ft 114kts
30-Dec-17 12:57 48.053830 -123.122310 284 4496ft 114kts
30-Dec-17 12:58 48.061683 -123.168180 285 4465ft 117kts
30-Dec-17 12:59 48.070044 -123.217042 284 3568ft 125kts
30-Dec-17 13:00 48.078190 -123.264866 284 2941ft 113kts
30-Dec-17 13:01 48.086508 -123.313908 284 2362ft 129kts
30-Dec-17 13:02 48.096003 -123.366395 285 1763ft 129kts
30-Dec-17 13:03 48.104150 -123.411963 282 1215ft 84kts
30-Dec-17 13:04 48.108900 -123.442512 283 981ft 66kts
30-Dec-17 13:05 48.113655 -123.469614 286 820ft 72kts
30-Dec-17 13:06 48.118135 -123.495209 284 294ft 49kts
30-Dec-17 13:07 48.118580 -123.502021 192 294ft 0kts
30-Dec-17 13:08 48.117928 -123.500194 107 294ft 8kts
30-Dec-17 13:09 48.117622 -123.501154 190 294ft 0kts
30-Dec-17 13:10 48.117622 -123.501154 190 294ft 0kts
30-Dec-17 13:11 48.117622 -123.501154 190 294ft 0kts
30-Dec-17 13:12 48.117637 -123.500801 85 294ft 7kts
30-Dec-17 13:13 48.117521 -123.497866 103 294ft 13kts
30-Dec-17 13:14 48.116840 -123.492178 107 294ft 11kts
30-Dec-17 13:15 48.115934 -123.486878 87 294ft 6kts
30-Dec-17 13:16 48.116301 -123.486518 9 294ft 9kts
30-Dec-17 13:17 48.119768 -123.507463 278 752ft 78kts
30-Dec-17 13:18 48.121824 -123.540867 274 1679ft 82kts
30-Dec-17 13:19 48.135426 -123.557479 38 2572ft 82kts
30-Dec-17 13:20 48.132252 -123.529432 117 3398ft 75kts
30-Dec-17 13:21 48.122305 -123.495933 110 3948ft 99kts

Navigation Log

Ident Type
Flight plan parsing failed, navigation log unavailable